Time;durP1;ratioP1;P1;durP2;ratioP2;P2;SDS_P1;SDS_P2;PMS_P1;PMS_P2;Temp;Humidity;BMP_temperature;BMP_pressure;BME280_temperature;BME280_humidity;BME280_pressure;Samples;Min_cycle;Max_cycle;Signal;HPM_P1;HPM_P2
2023/04/29 00:00:48;;;;;;;;;;;19.10;56.30;;;;;;6268017;28;19913;-70
2023/04/29 00:03:49;;;;;;;;;;;19.10;56.30;;;;;;6269768;28;19917;-69
2023/04/29 00:06:49;;;;;;;;;;;19.10;56.30;;;;;;6267537;28;19912;-69
2023/04/29 00:09:50;;;;;;;;;;;19.10;56.30;;;;;;6269541;28;19913;-69
2023/04/29 00:12:51;;;;;;;;;;;19.10;56.30;;;;;;6269006;28;19923;-70
2023/04/29 00:15:51;;;;;;;;;;;19.10;56.40;;;;;;6267886;28;19909;-69
2023/04/29 00:18:52;;;;;;;;;;;19.10;56.40;;;;;;6284283;28;19909;-70
2023/04/29 00:21:53;;;;;;;;;;;19.10;56.40;;;;;;6268972;28;20004;-69
2023/04/29 00:24:54;;;;;;;;;;;19.10;56.50;;;;;;6268123;28;19909;-69
2023/04/29 00:27:55;;;;;;;;;;;19.10;56.40;;;;;;6284307;28;20658;-69
2023/04/29 00:30:55;;;;;;;;;;;19.10;56.40;;;;;;6269980;28;19966;-70
2023/04/29 00:33:56;;;;;;;;;;;19.10;56.40;;;;;;6272737;28;19917;-69
2023/04/29 00:36:58;;;;;;;;;;;19.10;56.30;;;;;;6273972;28;20004;-70
2023/04/29 00:39:58;;;;;;;;;;;19.10;56.40;;;;;;6264688;28;20010;-70
2023/04/29 00:42:59;;;;;;;;;;;19.10;56.30;;;;;;6248200;28;19909;-69
2023/04/29 00:46:00;;;;;;;;;;;19.10;56.40;;;;;;6248961;28;20012;-70
2023/04/29 00:49:00;;;;;;;;;;;19.10;56.40;;;;;;6248902;28;20419;-70
2023/04/29 00:52:01;;;;;;;;;;;19.10;56.40;;;;;;6249240;28;19960;-69
2023/04/29 00:55:04;;;;;;;;;;;19.10;56.40;;;;;;6248257;28;19916;-70
2023/04/29 00:58:05;;;;;;;;;;;19.10;56.40;;;;;;6249310;28;19909;-69
2023/04/29 01:01:06;;;;;;;;;;;19.10;56.40;;;;;;6249421;28;19939;-70
2023/04/29 01:04:06;;;;;;;;;;;19.10;56.40;;;;;;6288991;28;19908;-70
2023/04/29 01:07:15;;;;;;;;;;;19.10;56.40;;;;;;6273174;28;19915;-69
2023/04/29 01:10:27;;;;;;;;;;;19.10;56.40;;;;;;6272163;28;19916;-70
2023/04/29 01:13:37;;;;;;;;;;;19.10;56.40;;;;;;6273283;28;19913;-69
2023/04/29 01:16:57;;;;;;;;;;;19.10;56.40;;;;;;6272250;28;19917;-70
2023/04/29 01:19:59;;;;;;;;;;;19.10;56.40;;;;;;6271678;28;19908;-69
2023/04/29 01:23:00;;;;;;;;;;;19.10;56.40;;;;;;6273741;28;20386;-70
2023/04/29 01:26:01;;;;;;;;;;;19.10;56.40;;;;;;6263805;28;20012;-70
2023/04/29 01:29:02;;;;;;;;;;;19.10;56.40;;;;;;6248423;28;19909;-70
2023/04/29 01:32:08;;;;;;;;;;;19.10;56.50;;;;;;6246780;28;20055;-70
2023/04/29 01:35:27;;;;;;;;;;;19.10;56.40;;;;;;6263832;28;20386;-70
2023/04/29 01:38:47;;;;;;;;;;;19.10;56.40;;;;;;6246715;28;19916;-70
2023/04/29 01:41:57;;;;;;;;;;;19.10;56.40;;;;;;6247838;28;19909;-70
2023/04/29 01:44:59;;;;;;;;;;;19.10;56.40;;;;;;6246584;28;19909;-70
2023/04/29 01:48:00;;;;;;;;;;;19.10;56.40;;;;;;6247352;28;19916;-69
2023/04/29 01:51:01;;;;;;;;;;;19.10;56.40;;;;;;6262507;28;19909;-69
2023/04/29 01:54:04;;;;;;;;;;;19.10;56.50;;;;;;6247522;28;19909;-70
2023/04/29 01:57:04;;;;;;;;;;;19.10;56.40;;;;;;6246147;28;20007;-69
2023/04/29 02:00:05;;;;;;;;;;;19.10;56.50;;;;;;6246314;28;19939;-69
2023/04/29 02:03:06;;;;;;;;;;;19.10;56.40;;;;;;6245943;28;19909;-70
2023/04/29 02:06:07;;;;;;;;;;;19.10;56.40;;;;;;6247310;28;19909;-70
2023/04/29 02:09:07;;;;;;;;;;;19.10;56.40;;;;;;6246924;28;19915;-69
2023/04/29 02:12:08;;;;;;;;;;;19.10;56.50;;;;;;6249954;28;20031;-69
2023/04/29 02:15:09;;;;;;;;;;;19.10;56.50;;;;;;6270641;28;19971;-69
2023/04/29 02:18:10;;;;;;;;;;;19.10;56.50;;;;;;6270370;28;19912;-69
2023/04/29 02:21:11;;;;;;;;;;;19.10;56.40;;;;;;6271843;28;19916;-69
2023/04/29 02:24:11;;;;;;;;;;;19.10;56.50;;;;;;6271810;28;19912;-69
2023/04/29 02:27:12;;;;;;;;;;;19.10;56.40;;;;;;6270129;28;19920;-68
2023/04/29 02:30:13;;;;;;;;;;;19.10;56.40;;;;;;6271655;28;19916;-69
2023/04/29 02:33:13;;;;;;;;;;;19.10;56.50;;;;;;6269958;28;20383;-69
2023/04/29 02:36:14;;;;;;;;;;;19.10;56.50;;;;;;6271542;28;20438;-69
2023/04/29 02:39:15;;;;;;;;;;;19.10;56.50;;;;;;6270148;28;19908;-70
2023/04/29 02:42:16;;;;;;;;;;;19.10;56.50;;;;;;6270008;28;20512;-69
2023/04/29 02:45:17;;;;;;;;;;;19.10;56.50;;;;;;6271024;28;19909;-69
2023/04/29 02:48:17;;;;;;;;;;;19.10;56.50;;;;;;6271058;28;19913;-70
2023/04/29 02:51:18;;;;;;;;;;;19.10;56.50;;;;;;6269421;28;19974;-69
2023/04/29 02:54:19;;;;;;;;;;;19.10;56.50;;;;;;6261125;28;19963;-69
2023/04/29 02:57:20;;;;;;;;;;;19.10;56.50;;;;;;6246277;28;20381;-69
2023/04/29 03:00:21;;;;;;;;;;;19.10;56.50;;;;;;6244902;28;19909;-69
2023/04/29 03:03:22;;;;;;;;;;;19.10;56.50;;;;;;6244654;28;19916;-70
2023/04/29 03:06:23;;;;;;;;;;;19.10;56.50;;;;;;6244904;28;19909;-69
2023/04/29 03:09:23;;;;;;;;;;;19.10;56.70;;;;;;6268807;28;19935;-70
2023/04/29 03:12:24;;;;;;;;;;;19.10;56.60;;;;;;6268597;28;19912;-69
2023/04/29 03:15:25;;;;;;;;;;;19.10;56.50;;;;;;6269035;28;19999;-69
2023/04/29 03:18:25;;;;;;;;;;;19.10;56.60;;;;;;6270439;28;19999;-70
2023/04/29 03:21:26;;;;;;;;;;;19.10;56.50;;;;;;6270286;28;19909;-69
2023/04/29 03:24:27;;;;;;;;;;;19.10;56.50;;;;;;6269038;28;19916;-69
2023/04/29 03:27:27;;;;;;;;;;;19.10;56.50;;;;;;6268852;28;20725;-69
2023/04/29 03:30:28;;;;;;;;;;;19.10;56.50;;;;;;6270057;28;19999;-69
2023/04/29 03:33:29;;;;;;;;;;;19.10;56.50;;;;;;6268850;28;20504;-69
2023/04/29 03:36:29;;;;;;;;;;;19.10;56.50;;;;;;6269436;28;19909;-69
2023/04/29 03:39:31;;;;;;;;;;;19.10;56.50;;;;;;6269729;28;19916;-69
2023/04/29 03:42:31;;;;;;;;;;;19.10;56.60;;;;;;6269600;28;19915;-69
2023/04/29 03:45:32;;;;;;;;;;;19.10;56.50;;;;;;6269413;28;19909;-69
2023/04/29 03:48:33;;;;;;;;;;;19.10;56.50;;;;;;6269436;28;19917;-69
2023/04/29 03:51:33;;;;;;;;;;;19.10;56.50;;;;;;6268312;28;19916;-69
2023/04/29 03:54:34;;;;;;;;;;;19.10;56.60;;;;;;6269320;28;20497;-68
2023/04/29 03:57:35;;;;;;;;;;;19.10;56.50;;;;;;6269597;28;19908;-69
2023/04/29 04:00:36;;;;;;;;;;;19.10;56.50;;;;;;6269190;28;20366;-69
2023/04/29 04:03:37;;;;;;;;;;;19.10;56.50;;;;;;6268110;28;19962;-69
2023/04/29 04:06:38;;;;;;;;;;;19.10;56.50;;;;;;6267302;28;19920;-69
2023/04/29 04:09:38;;;;;;;;;;;19.10;56.50;;;;;;6268377;28;19913;-69
2023/04/29 04:12:39;;;;;;;;;;;19.10;56.60;;;;;;6267420;28;20011;-69
2023/04/29 04:15:41;;;;;;;;;;;19.10;56.50;;;;;;6267924;28;19915;-69
2023/04/29 04:18:41;;;;;;;;;;;19.10;56.50;;;;;;6269109;28;19909;-69
2023/04/29 04:21:42;;;;;;;;;;;19.10;56.50;;;;;;6268038;28;19909;-69
2023/04/29 04:24:43;;;;;;;;;;;19.10;56.50;;;;;;6268826;28;19915;-69
2023/04/29 04:27:43;;;;;;;;;;;19.10;56.50;;;;;;6267269;28;19916;-69
2023/04/29 04:30:45;;;;;;;;;;;19.10;56.50;;;;;;6267608;28;20441;-69
2023/04/29 04:33:45;;;;;;;;;;;19.10;56.60;;;;;;6267308;28;20365;-69
2023/04/29 04:36:46;;;;;;;;;;;19.10;56.50;;;;;;6269018;28;19930;-69
2023/04/29 04:39:47;;;;;;;;;;;19.10;56.60;;;;;;6269392;28;19909;-67
2023/04/29 04:42:47;;;;;;;;;;;19.10;56.60;;;;;;6269998;28;20530;-68
2023/04/29 04:45:48;;;;;;;;;;;19.10;56.60;;;;;;6269682;28;19915;-68
2023/04/29 04:48:48;;;;;;;;;;;19.10;56.50;;;;;;6268023;28;19920;-68
2023/04/29 04:51:50;;;;;;;;;;;19.10;56.50;;;;;;6260821;28;19932;-70
2023/04/29 04:54:51;;;;;;;;;;;19.10;56.60;;;;;;6241504;28;19910;-72
2023/04/29 04:57:52;;;;;;;;;;;19.10;56.50;;;;;;6243539;28;19913;-70
2023/04/29 05:00:52;;;;;;;;;;;19.10;56.60;;;;;;6243521;28;19916;-69
2023/04/29 05:03:53;;;;;;;;;;;19.10;56.50;;;;;;6251948;28;19999;-68
2023/04/29 05:06:53;;;;;;;;;;;19.10;56.60;;;;;;6267676;28;19917;-69
2023/04/29 05:09:54;;;;;;;;;;;19.20;56.70;;;;;;6268561;28;19908;-70
2023/04/29 05:12:55;;;;;;;;;;;19.10;56.50;;;;;;6267973;28;19934;-68
2023/04/29 05:15:55;;;;;;;;;;;19.10;56.50;;;;;;6266623;28;19908;-69
2023/04/29 05:18:56;;;;;;;;;;;19.20;56.50;;;;;;6268680;28;19952;-70
2023/04/29 05:21:57;;;;;;;;;;;19.20;56.50;;;;;;6273425;28;19959;-70
2023/04/29 05:25:01;;;;;;;;;;;19.20;56.50;;;;;;6279927;28;20006;-70
2023/04/29 05:28:03;;;;;;;;;;;19.20;56.50;;;;;;6297630;28;19909;-69
2023/04/29 05:31:04;;;;;;;;;;;19.20;56.50;;;;;;6277541;28;19936;-69
2023/04/29 05:34:05;;;;;;;;;;;19.20;56.50;;;;;;6268481;28;19909;-69
2023/04/29 05:37:06;;;;;;;;;;;19.20;56.50;;;;;;6247850;28;19955;-70
2023/04/29 05:40:07;;;;;;;;;;;19.20;56.70;;;;;;6244815;28;20011;-70
2023/04/29 05:43:08;;;;;;;;;;;19.30;56.60;;;;;;6255752;28;20048;-69
2023/04/29 05:46:08;;;;;;;;;;;19.30;56.50;;;;;;6270106;28;20414;-69
2023/04/29 05:49:09;;;;;;;;;;;19.40;56.30;;;;;;6271809;28;19920;-69
2023/04/29 05:52:10;;;;;;;;;;;19.50;56.00;;;;;;6271956;28;20388;-69
2023/04/29 05:55:11;;;;;;;;;;;19.50;56.30;;;;;;6257485;28;19916;-69
2023/04/29 05:58:13;;;;;;;;;;;19.50;56.40;;;;;;6263708;28;19971;-69
2023/04/29 06:01:16;;;;;;;;;;;19.50;56.40;;;;;;6272057;28;19917;-68
2023/04/29 06:04:16;;;;;;;;;;;19.50;56.50;;;;;;6271820;28;19978;-68
2023/04/29 06:07:17;;;;;;;;;;;19.50;56.70;;;;;;6272596;28;19966;-68
2023/04/29 06:10:18;;;;;;;;;;;19.50;56.80;;;;;;6272481;28;19909;-68
2023/04/29 06:13:19;;;;;;;;;;;19.40;56.60;;;;;;6272743;28;19917;-67
2023/04/29 06:16:20;;;;;;;;;;;19.50;56.90;;;;;;6272473;28;19944;-67
2023/04/29 06:19:20;;;;;;;;;;;19.50;56.80;;;;;;6271173;28;19916;-67
2023/04/29 06:22:21;;;;;;;;;;;19.50;56.80;;;;;;6270972;28;19917;-67
2023/04/29 06:25:22;;;;;;;;;;;19.40;56.70;;;;;;6272493;28;19909;-67
2023/04/29 06:28:22;;;;;;;;;;;19.40;56.70;;;;;;6270641;28;19909;-67
2023/04/29 06:31:23;;;;;;;;;;;19.40;56.70;;;;;;6270352;28;19955;-67
2023/04/29 06:34:24;;;;;;;;;;;19.40;56.70;;;;;;6271892;28;19915;-67
2023/04/29 06:37:24;;;;;;;;;;;19.40;56.70;;;;;;6272176;28;19912;-67
2023/04/29 06:40:25;;;;;;;;;;;19.40;56.70;;;;;;6270606;28;19908;-68
2023/04/29 06:43:26;;;;;;;;;;;19.40;56.80;;;;;;6270764;28;19909;-67
2023/04/29 06:46:28;;;;;;;;;;;19.40;56.70;;;;;;6272012;28;19909;-68
2023/04/29 06:49:29;;;;;;;;;;;19.40;56.70;;;;;;6271560;28;19921;-67
2023/04/29 06:52:30;;;;;;;;;;;19.30;57.30;;;;;;6271383;28;19967;-67
2023/04/29 06:55:30;;;;;;;;;;;19.40;56.70;;;;;;6270398;28;19954;-68
2023/04/29 06:58:31;;;;;;;;;;;19.40;56.70;;;;;;6270022;28;19909;-67
2023/04/29 07:01:31;;;;;;;;;;;19.40;56.70;;;;;;6271402;28;19909;-68
2023/04/29 07:04:32;;;;;;;;;;;19.30;56.70;;;;;;6271446;28;19909;-68
2023/04/29 07:07:33;;;;;;;;;;;19.30;56.70;;;;;;6271218;28;19909;-68
2023/04/29 07:10:33;;;;;;;;;;;19.30;56.70;;;;;;6271102;28;19971;-68
2023/04/29 07:13:34;;;;;;;;;;;19.30;56.70;;;;;;6271233;28;19913;-68
2023/04/29 07:16:35;;;;;;;;;;;19.30;56.70;;;;;;6269567;28;19912;-68
2023/04/29 07:19:35;;;;;;;;;;;19.30;56.70;;;;;;6271086;28;19909;-67
2023/04/29 07:22:36;;;;;;;;;;;19.30;56.70;;;;;;6269421;28;19954;-67
2023/04/29 07:25:37;;;;;;;;;;;19.30;56.80;;;;;;6270860;28;19909;-67
2023/04/29 07:28:38;;;;;;;;;;;19.30;56.80;;;;;;6270649;28;19955;-67
2023/04/29 07:31:39;;;;;;;;;;;19.30;56.80;;;;;;6270779;28;19923;-67
2023/04/29 07:34:39;;;;;;;;;;;19.30;56.70;;;;;;6269557;28;19909;-67
2023/04/29 07:37:42;;;;;;;;;;;19.30;56.70;;;;;;6270291;28;19999;-67
2023/04/29 07:40:43;;;;;;;;;;;19.30;56.80;;;;;;6268467;28;19913;-67
2023/04/29 07:43:44;;;;;;;;;;;19.30;56.80;;;;;;6270303;28;19913;-67
2023/04/29 07:46:45;;;;;;;;;;;19.30;56.80;;;;;;6270475;28;19916;-67
2023/04/29 07:49:46;;;;;;;;;;;19.30;56.80;;;;;;6270230;28;19921;-67
2023/04/29 07:52:46;;;;;;;;;;;19.30;56.80;;;;;;6268794;28;19938;-67
2023/04/29 07:55:47;;;;;;;;;;;19.30;56.90;;;;;;6268910;28;19915;-67
2023/04/29 07:58:48;;;;;;;;;;;19.30;56.80;;;;;;6270195;28;20285;-67
2023/04/29 08:01:49;;;;;;;;;;;19.30;56.90;;;;;;6270069;28;19978;-67
2023/04/29 08:04:49;;;;;;;;;;;19.30;56.90;;;;;;6270322;28;19986;-68
2023/04/29 08:07:50;;;;;;;;;;;19.30;56.90;;;;;;6269936;28;19908;-68
2023/04/29 08:10:51;;;;;;;;;;;19.30;56.90;;;;;;6270017;28;19944;-67
2023/04/29 08:13:52;;;;;;;;;;;19.30;57.00;;;;;;6268575;28;19912;-67
2023/04/29 08:16:54;;;;;;;;;;;19.30;56.90;;;;;;6269867;28;19909;-67
2023/04/29 08:19:55;;;;;;;;;;;19.30;56.90;;;;;;6269905;28;20313;-68
2023/04/29 08:22:57;;;;;;;;;;;19.30;57.00;;;;;;6269878;28;19915;-67
2023/04/29 08:25:57;;;;;;;;;;;19.30;57.00;;;;;;6269773;28;19940;-67
2023/04/29 08:28:59;;;;;;;;;;;19.30;57.00;;;;;;6268390;28;19913;-67
2023/04/29 08:32:00;;;;;;;;;;;19.30;57.00;;;;;;6268235;28;19917;-67
2023/04/29 08:35:02;;;;;;;;;;;19.30;57.00;;;;;;6269667;28;19908;-67
2023/04/29 08:38:04;;;;;;;;;;;19.30;57.00;;;;;;6268132;28;19959;-67
2023/04/29 08:41:10;;;;;;;;;;;19.30;57.00;;;;;;6268767;28;20029;-67
2023/04/29 08:44:11;;;;;;;;;;;19.30;57.10;;;;;;6267920;28;19920;-67
2023/04/29 08:47:12;;;;;;;;;;;19.30;57.00;;;;;;6269697;28;19909;-67
2023/04/29 08:50:13;;;;;;;;;;;19.30;57.00;;;;;;6267979;28;19923;-68
2023/04/29 08:53:14;;;;;;;;;;;19.30;57.00;;;;;;6271462;28;19917;-67
2023/04/29 08:56:26;;;;;;;;;;;19.30;57.00;;;;;;6274277;28;19916;-67
2023/04/29 08:59:27;;;;;;;;;;;19.30;57.00;;;;;;6274211;28;20421;-67
2023/04/29 09:02:27;;;;;;;;;;;19.30;57.00;;;;;;6274233;28;19951;-67
2023/04/29 09:05:28;;;;;;;;;;;19.30;57.00;;;;;;6274249;28;19909;-67
2023/04/29 09:08:29;;;;;;;;;;;19.30;57.00;;;;;;6272913;28;19920;-67
2023/04/29 09:11:31;;;;;;;;;;;19.30;57.00;;;;;;6273959;28;19913;-67
2023/04/29 09:14:35;;;;;;;;;;;19.30;57.00;;;;;;6273866;28;19912;-67
2023/04/29 09:17:45;;;;;;;;;;;19.30;57.00;;;;;;6273644;28;19920;-67
2023/04/29 09:20:46;;;;;;;;;;;19.30;57.00;;;;;;6272517;28;19909;-66
2023/04/29 09:23:47;;;;;;;;;;;19.30;57.00;;;;;;6273653;28;19928;-67
2023/04/29 09:26:48;;;;;;;;;;;19.30;57.10;;;;;;6272556;28;20412;-67
2023/04/29 09:29:59;;;;;;;;;;;19.30;57.00;;;;;;6273426;28;19991;-67
2023/04/29 09:33:04;;;;;;;;;;;19.30;57.00;;;;;;6273509;28;19916;-67
2023/04/29 09:36:05;;;;;;;;;;;19.30;57.00;;;;;;6273447;28;19933;-67
2023/04/29 09:39:12;;;;;;;;;;;19.30;57.00;;;;;;6273405;28;19909;-67
2023/04/29 09:42:13;;;;;;;;;;;19.30;57.00;;;;;;6273382;28;19909;-67
2023/04/29 09:45:30;;;;;;;;;;;19.30;57.00;;;;;;6273136;28;20397;-67
2023/04/29 09:48:32;;;;;;;;;;;19.30;57.00;;;;;;6273056;28;19920;-67
2023/04/29 09:51:50;;;;;;;;;;;19.30;57.00;;;;;;6271620;28;20012;-67
2023/04/29 09:54:51;;;;;;;;;;;19.30;57.00;;;;;;6271541;28;19909;-66
2023/04/29 09:57:52;;;;;;;;;;;19.30;57.00;;;;;;6272872;28;19944;-67
2023/04/29 10:00:53;;;;;;;;;;;19.30;57.00;;;;;;6272724;28;20366;-67
2023/04/29 10:03:53;;;;;;;;;;;19.30;57.00;;;;;;6270369;28;19967;-67
2023/04/29 10:06:55;;;;;;;;;;;19.30;57.00;;;;;;6272170;28;20431;-67
2023/04/29 10:09:55;;;;;;;;;;;19.30;57.00;;;;;;6272948;28;19920;-67
2023/04/29 10:12:59;;;;;;;;;;;19.30;57.10;;;;;;6272364;28;19913;-67
2023/04/29 10:16:13;;;;;;;;;;;19.30;57.00;;;;;;6272469;28;19916;-67
2023/04/29 10:19:17;;;;;;;;;;;19.30;57.00;;;;;;6272761;28;19952;-70
2023/04/29 10:22:21;;;;;;;;;;;19.30;57.00;;;;;;6270882;28;19916;-69
2023/04/29 10:25:23;;;;;;;;;;;19.30;57.10;;;;;;6270589;28;19913;-69
2023/04/29 10:28:24;;;;;;;;;;;19.30;57.00;;;;;;6271034;28;19912;-69
2023/04/29 10:31:26;;;;;;;;;;;19.30;57.00;;;;;;6270049;28;19919;-69
2023/04/29 10:34:28;;;;;;;;;;;19.30;57.00;;;;;;6270042;28;19939;-69
2023/04/29 10:37:28;;;;;;;;;;;19.30;57.00;;;;;;6270034;28;19915;-69
2023/04/29 10:40:29;;;;;;;;;;;19.30;57.00;;;;;;6270815;28;19912;-70
2023/04/29 10:43:30;;;;;;;;;;;19.30;57.00;;;;;;6270864;28;19913;-70
2023/04/29 10:46:31;;;;;;;;;;;19.30;57.10;;;;;;6270831;28;19970;-70
2023/04/29 10:49:35;;;;;;;;;;;19.30;57.00;;;;;;6271055;28;19967;-69
2023/04/29 10:52:51;;;;;;;;;;;19.30;57.10;;;;;;6270764;28;19921;-70
2023/04/29 10:56:07;;;;;;;;;;;19.30;57.00;;;;;;6269898;28;19909;-69
2023/04/29 10:59:12;;;;;;;;;;;19.30;57.00;;;;;;6271026;28;20000;-70
2023/04/29 11:02:14;;;;;;;;;;;19.30;57.00;;;;;;6269480;28;19916;-69
2023/04/29 11:05:16;;;;;;;;;;;19.30;57.00;;;;;;6269416;28;19909;-70
2023/04/29 11:08:23;;;;;;;;;;;19.30;57.00;;;;;;6270018;28;19909;-69
2023/04/29 11:11:24;;;;;;;;;;;19.30;57.10;;;;;;6270045;28;20412;-70
2023/04/29 11:14:29;;;;;;;;;;;19.30;57.10;;;;;;6269572;28;19916;-70
2023/04/29 11:17:35;;;;;;;;;;;19.30;57.10;;;;;;6269867;28;20447;-70
2023/04/29 11:20:55;;;;;;;;;;;19.30;57.10;;;;;;6269232;28;20466;-70
2023/04/29 11:23:56;;;;;;;;;;;19.30;57.10;;;;;;6270058;28;20007;-69
2023/04/29 11:27:03;;;;;;;;;;;19.30;57.20;;;;;;6268949;28;19909;-69
2023/04/29 11:30:05;;;;;;;;;;;19.30;57.10;;;;;;6268323;28;19944;-70
2023/04/29 11:33:07;;;;;;;;;;;19.30;57.10;;;;;;6269730;28;19913;-70
2023/04/29 11:36:09;;;;;;;;;;;19.30;57.10;;;;;;6269723;28;19951;-70
2023/04/29 11:39:10;;;;;;;;;;;19.30;57.20;;;;;;6268297;28;19913;-70
2023/04/29 11:42:11;;;;;;;;;;;19.30;57.10;;;;;;6268559;28;19974;-70
2023/04/29 11:45:12;;;;;;;;;;;19.30;57.00;;;;;;6269682;28;19995;-70
2023/04/29 11:48:25;;;;;;;;;;;19.30;57.10;;;;;;6269141;28;19913;-70
2023/04/29 11:51:26;;;;;;;;;;;19.30;57.10;;;;;;6265086;28;20619;-67
2023/04/29 11:54:29;;;;;;;;;;;19.30;57.00;;;;;;6259258;28;22017;-70
2023/04/29 11:57:30;;;;;;;;;;;19.30;57.10;;;;;;6268480;28;19920;-71
2023/04/29 12:00:31;;;;;;;;;;;19.30;57.30;;;;;;6269128;28;19956;-71
2023/04/29 12:03:32;;;;;;;;;;;19.30;57.00;;;;;;6259533;28;19916;-70
2023/04/29 12:06:33;;;;;;;;;;;19.30;57.00;;;;;;6244283;28;19959;-70
2023/04/29 12:09:43;;;;;;;;;;;19.30;57.00;;;;;;6237299;28;19948;-71
2023/04/29 12:12:45;;;;;;;;;;;19.30;57.00;;;;;;6260388;28;19928;-71
2023/04/29 12:15:46;;;;;;;;;;;19.30;57.00;;;;;;6249163;28;20390;-71
2023/04/29 12:18:47;;;;;;;;;;;19.30;57.00;;;;;;6256289;28;19984;-71
2023/04/29 12:21:48;;;;;;;;;;;19.30;56.60;;;;;;6268447;28;19916;-71
2023/04/29 12:24:51;;;;;;;;;;;19.40;56.30;;;;;;6280210;28;20266;-70
2023/04/29 12:27:57;;;;;;;;;;;19.40;56.10;;;;;;6290967;28;19909;-70
2023/04/29 12:30:58;;;;;;;;;;;19.40;56.20;;;;;;6269816;28;20285;-70
2023/04/29 12:33:59;;;;;;;;;;;19.40;56.30;;;;;;6262236;28;19917;-70
2023/04/29 12:37:00;;;;;;;;;;;19.40;56.00;;;;;;6243868;28;19941;-70
2023/04/29 12:40:01;;;;;;;;;;;19.40;56.10;;;;;;6257625;28;19959;-70
2023/04/29 12:43:09;;;;;;;;;;;19.30;56.10;;;;;;6268519;28;19913;-70
2023/04/29 12:46:13;;;;;;;;;;;19.30;55.90;;;;;;6267040;28;19955;-70
2023/04/29 12:49:17;;;;;;;;;;;19.30;55.90;;;;;;6266721;28;20289;-70
2023/04/29 12:52:18;;;;;;;;;;;19.30;55.90;;;;;;6267141;28;20388;-70
2023/04/29 12:55:18;;;;;;;;;;;19.40;55.80;;;;;;6253898;28;19910;-71
2023/04/29 12:58:20;;;;;;;;;;;19.40;56.00;;;;;;6242132;28;19913;-71
2023/04/29 13:01:21;;;;;;;;;;;19.40;56.00;;;;;;6265522;28;19909;-71
2023/04/29 13:04:22;;;;;;;;;;;19.40;55.80;;;;;;6267904;28;19920;-71
2023/04/29 13:07:22;;;;;;;;;;;19.30;55.80;;;;;;6261455;28;19916;-70
2023/04/29 13:10:23;;;;;;;;;;;19.30;55.70;;;;;;6255488;28;19913;-70
2023/04/29 13:13:23;;;;;;;;;;;19.30;55.70;;;;;;6268111;28;19913;-71
2023/04/29 13:16:24;;;;;;;;;;;19.30;55.60;;;;;;6247426;28;19909;-70
2023/04/29 13:19:25;;;;;;;;;;;19.30;55.80;;;;;;6245084;28;19909;-71
2023/04/29 13:22:26;;;;;;;;;;;19.30;55.80;;;;;;6266605;28;20003;-71
2023/04/29 13:25:27;;;;;;;;;;;19.30;55.60;;;;;;6256976;28;19996;-70
2023/04/29 13:28:27;;;;;;;;;;;19.30;55.50;;;;;;6242017;28;19909;-71
2023/04/29 13:31:28;;;;;;;;;;;19.30;55.70;;;;;;6259873;28;20545;-70
2023/04/29 13:34:29;;;;;;;;;;;19.20;55.30;;;;;;6266684;28;20007;-71
2023/04/29 13:37:30;;;;;;;;;;;19.30;55.20;;;;;;6267913;28;19920;-71
2023/04/29 13:40:30;;;;;;;;;;;19.30;55.30;;;;;;6270791;28;20007;-72
2023/04/29 13:43:31;;;;;;;;;;;19.30;55.90;;;;;;6270425;28;19931;-72
2023/04/29 13:46:32;;;;;;;;;;;19.30;56.00;;;;;;6258662;28;19944;-71
2023/04/29 13:49:32;;;;;;;;;;;19.30;55.80;;;;;;6271430;28;19986;-72
2023/04/29 13:52:33;;;;;;;;;;;19.30;55.80;;;;;;6247218;28;20024;-72
2023/04/29 13:55:34;;;;;;;;;;;19.30;55.80;;;;;;6249906;28;19908;-72
2023/04/29 13:58:34;;;;;;;;;;;19.30;55.90;;;;;;6270296;28;20004;-72
2023/04/29 14:01:35;;;;;;;;;;;19.30;56.00;;;;;;6270971;28;19915;-72
2023/04/29 14:04:36;;;;;;;;;;;19.30;56.00;;;;;;6270608;28;19909;-72
2023/04/29 14:07:36;;;;;;;;;;;19.30;56.00;;;;;;6247963;28;19909;-73
2023/04/29 14:10:37;;;;;;;;;;;19.30;56.10;;;;;;6249599;28;19920;-72
2023/04/29 14:13:38;;;;;;;;;;;19.30;56.10;;;;;;6269299;28;19916;-73
2023/04/29 14:16:38;;;;;;;;;;;19.30;56.10;;;;;;6258365;28;19909;-72
2023/04/29 14:19:40;;;;;;;;;;;19.30;56.20;;;;;;6245269;28;19913;-72
2023/04/29 14:22:40;;;;;;;;;;;19.30;56.10;;;;;;6278856;28;19978;-71
2023/04/29 14:25:41;;;;;;;;;;;19.30;56.10;;;;;;6281665;28;20642;-71
2023/04/29 14:28:42;;;;;;;;;;;19.30;56.10;;;;;;6244662;28;19909;-71
2023/04/29 14:31:42;;;;;;;;;;;19.30;56.30;;;;;;6251127;28;20428;-71
2023/04/29 14:34:43;;;;;;;;;;;19.30;56.30;;;;;;6270275;28;19912;-72
2023/04/29 14:37:45;;;;;;;;;;;19.30;56.30;;;;;;6268875;28;19909;-72
2023/04/29 14:40:46;;;;;;;;;;;19.30;56.40;;;;;;6245241;28;19940;-71
2023/04/29 14:43:46;;;;;;;;;;;19.30;56.40;;;;;;6266152;28;20000;-72
2023/04/29 14:46:47;;;;;;;;;;;19.30;56.50;;;;;;6261220;28;19910;-72
2023/04/29 14:49:48;;;;;;;;;;;19.30;56.50;;;;;;6244704;28;20008;-71
2023/04/29 14:52:48;;;;;;;;;;;19.30;56.50;;;;;;6255952;28;20401;-72
2023/04/29 14:55:50;;;;;;;;;;;19.30;56.50;;;;;;6243774;28;20067;-72
2023/04/29 14:58:50;;;;;;;;;;;19.30;56.50;;;;;;6265868;28;20400;-71
2023/04/29 15:01:51;;;;;;;;;;;19.30;56.50;;;;;;6264424;28;19909;-71
2023/04/29 15:04:52;;;;;;;;;;;19.30;56.50;;;;;;6236999;28;20040;-72
2023/04/29 15:07:52;;;;;;;;;;;19.30;56.50;;;;;;6261400;28;20007;-72
2023/04/29 15:10:53;;;;;;;;;;;19.30;56.50;;;;;;6268558;28;19913;-72
2023/04/29 15:13:54;;;;;;;;;;;19.40;56.40;;;;;;6261552;28;19966;-71
2023/04/29 15:16:54;;;;;;;;;;;19.40;56.30;;;;;;6265309;28;20370;-72
2023/04/29 15:19:55;;;;;;;;;;;19.40;56.20;;;;;;6251518;28;20003;-71
2023/04/29 15:22:56;;;;;;;;;;;19.40;56.20;;;;;;6272355;28;19915;-71
2023/04/29 15:25:56;;;;;;;;;;;19.50;56.20;;;;;;6274095;28;19909;-71
2023/04/29 15:28:57;;;;;;;;;;;19.60;56.10;;;;;;6251435;28;19909;-71
2023/04/29 15:31:58;;;;;;;;;;;19.60;55.90;;;;;;6242631;28;19913;-72
2023/04/29 15:34:59;;;;;;;;;;;19.60;56.00;;;;;;6266360;28;19909;-72
2023/04/29 15:38:00;;;;;;;;;;;19.50;56.20;;;;;;6268478;28;19920;-72
2023/04/29 15:41:02;;;;;;;;;;;19.60;56.20;;;;;;6250659;28;19909;-72
2023/04/29 15:44:03;;;;;;;;;;;19.60;56.20;;;;;;6248954;28;19967;-71
2023/04/29 15:47:04;;;;;;;;;;;19.50;56.00;;;;;;6243495;28;19909;-72
2023/04/29 15:50:05;;;;;;;;;;;19.50;56.10;;;;;;6264868;28;19927;-71
2023/04/29 15:53:06;;;;;;;;;;;19.50;56.10;;;;;;6263950;28;20016;-72
2023/04/29 15:56:07;;;;;;;;;;;19.60;56.20;;;;;;6267613;28;19954;-72
2023/04/29 15:59:08;;;;;;;;;;;19.50;56.30;;;;;;6234023;28;19924;-72
2023/04/29 16:02:10;;;;;;;;;;;19.50;56.20;;;;;;6242070;28;19909;-73
2023/04/29 16:05:11;;;;;;;;;;;19.50;56.20;;;;;;6249918;28;20400;-74
2023/04/29 16:08:11;;;;;;;;;;;19.50;56.30;;;;;;6242875;28;19909;-72
2023/04/29 16:11:12;;;;;;;;;;;19.50;56.30;;;;;;6232197;28;19924;-72
2023/04/29 16:14:13;;;;;;;;;;;19.50;56.30;;;;;;6245049;28;19952;-72
2023/04/29 16:17:13;;;;;;;;;;;19.50;56.30;;;;;;6266497;28;19949;-72
2023/04/29 16:20:16;;;;;;;;;;;19.50;56.40;;;;;;6267419;28;19937;-71
2023/04/29 16:23:16;;;;;;;;;;;19.50;56.30;;;;;;6265359;28;19909;-72
2023/04/29 16:26:17;;;;;;;;;;;19.50;56.30;;;;;;6262684;28;19916;-72
2023/04/29 16:29:19;;;;;;;;;;;19.50;56.30;;;;;;6258217;28;19956;-72
2023/04/29 16:32:21;;;;;;;;;;;19.50;56.50;;;;;;6243329;28;19924;-72
2023/04/29 16:35:25;;;;;;;;;;;19.50;56.50;;;;;;6258726;28;19936;-72
2023/04/29 16:38:25;;;;;;;;;;;19.50;56.60;;;;;;6267694;28;19923;-71
2023/04/29 16:41:28;;;;;;;;;;;19.50;56.60;;;;;;6242246;28;19936;-72
2023/04/29 16:44:29;;;;;;;;;;;19.50;56.70;;;;;;6240108;28;19944;-71
2023/04/29 16:47:30;;;;;;;;;;;19.40;56.60;;;;;;6251327;28;19916;-73
2023/04/29 16:50:31;;;;;;;;;;;19.50;56.70;;;;;;6266068;28;19963;-72
2023/04/29 16:53:32;;;;;;;;;;;19.50;57.00;;;;;;6266184;28;19923;-72
2023/04/29 16:56:32;;;;;;;;;;;19.60;54.10;;;;;;6262307;28;19920;-72
2023/04/29 16:59:33;;;;;;;;;;;19.60;54.00;;;;;;6255887;28;19912;-71
2023/04/29 17:02:34;;;;;;;;;;;19.70;53.30;;;;;;6257259;28;19940;-71
2023/04/29 17:05:36;;;;;;;;;;;19.70;53.40;;;;;;6249974;28;19921;-71
2023/04/29 17:08:36;;;;;;;;;;;19.80;52.80;;;;;;6242197;28;19909;-72
2023/04/29 17:11:37;;;;;;;;;;;19.90;52.60;;;;;;6242413;28;20654;-71
2023/04/29 17:14:38;;;;;;;;;;;20.00;52.40;;;;;;6249083;28;19913;-71
2023/04/29 17:17:39;;;;;;;;;;;20.00;52.10;;;;;;6270112;28;19992;-73
2023/04/29 17:20:41;;;;;;;;;;;20.10;52.00;;;;;;6271302;28;19917;-72
2023/04/29 17:23:42;;;;;;;;;;;20.10;51.70;;;;;;6271267;28;20332;-71
2023/04/29 17:26:43;;;;;;;;;;;20.10;51.50;;;;;;6260709;28;19909;-71
2023/04/29 17:29:44;;;;;;;;;;;20.20;51.50;;;;;;6246631;28;20321;-72
2023/04/29 17:32:45;;;;;;;;;;;20.20;51.40;;;;;;6246634;28;19952;-72
2023/04/29 17:35:46;;;;;;;;;;;20.20;51.30;;;;;;6255525;28;19967;-71